createdAt,value
2023-01-17T00:02:23.002Z,94.70
2023-01-17T00:05:09.062Z,95.00
2023-01-17T00:07:55.462Z,94.40
2023-01-17T00:10:26.365Z,94.20
2023-01-17T00:13:12.402Z,93.80
2023-01-17T00:15:44.968Z,93.60
2023-01-17T00:18:13.527Z,93.70
2023-01-17T00:20:59.831Z,93.90
2023-01-17T00:23:42.021Z,95.00
2023-01-17T00:26:19.058Z,90.80
2023-01-17T00:28:48.922Z,83.60
2023-01-17T00:31:17.483Z,81.60
2023-01-17T00:33:45.383Z,80.60
2023-01-17T00:36:12.758Z,80.70
2023-01-17T00:38:41.567Z,81.40
2023-01-17T00:41:11.163Z,82.60
2023-01-17T00:43:59.143Z,83.70
2023-01-17T00:46:45.342Z,86.60
2023-01-17T00:49:31.572Z,88.20
2023-01-17T00:52:17.802Z,88.30
2023-01-17T00:55:04.575Z,80.60
2023-01-17T00:57:50.642Z,75.90
2023-01-17T01:00:41.104Z,74.90
2023-01-17T01:03:30.321Z,75.70
2023-01-17T01:06:16.474Z,74.60
2023-01-17T01:09:02.676Z,74.60
2023-01-17T01:11:49.152Z,74.30
2023-01-17T01:14:34.813Z,72.80
2023-01-17T01:17:20.955Z,73.90
2023-01-17T01:20:07.833Z,74.60
2023-01-17T01:22:54.166Z,73.90
2023-01-17T01:25:40.362Z,72.10
2023-01-17T01:28:30.802Z,73.90
2023-01-17T01:31:21.655Z,74.70
2023-01-17T01:33:51.959Z,78.90
2023-01-17T01:36:20.952Z,81.40
2023-01-17T01:38:48.476Z,84.10
2023-01-17T01:41:16.724Z,85.60
2023-01-17T01:43:52.193Z,86.60
2023-01-17T01:46:41.132Z,87.50
2023-01-17T01:49:26.188Z,88.60
2023-01-17T01:51:59.409Z,88.70
2023-01-17T01:54:42.363Z,89.20
2023-01-17T01:57:15.882Z,90.70
2023-01-17T01:59:49.697Z,90.70
2023-01-17T02:02:18.763Z,91.10
2023-01-17T02:04:46.826Z,90.30
2023-01-17T02:07:32.293Z,90.80
2023-01-17T02:09:59.950Z,91.70
2023-01-17T02:12:28.569Z,91.40
2023-01-17T02:14:56.450Z,91.50
2023-01-17T02:17:46.239Z,91.50
2023-01-17T02:20:55.298Z,91.40
2023-01-17T02:23:51.980Z,91.70
2023-01-17T02:26:19.544Z,91.80
2023-01-17T02:29:07.564Z,91.80
2023-01-17T02:31:54.234Z,91.40
2023-01-17T02:34:36.611Z,91.50
2023-01-17T02:37:37.643Z,91.10
2023-01-17T02:40:23.342Z,90.60
2023-01-17T02:42:56.648Z,90.90
2023-01-17T02:45:25.354Z,90.90
2023-01-17T02:47:52.745Z,91.00
2023-01-17T02:50:23.037Z,90.90
2023-01-17T02:52:57.829Z,90.70
2023-01-17T02:55:43.911Z,89.50
2023-01-17T02:58:40.095Z,90.30
2023-01-17T03:01:17.834Z,90.70
2023-01-17T03:03:53.305Z,90.50
2023-01-17T03:06:24.716Z,91.20
2023-01-17T03:08:52.981Z,91.60
2023-01-17T03:11:21.240Z,91.60
2023-01-17T03:13:48.607Z,91.60
2023-01-17T03:16:20.051Z,91.20
2023-01-17T03:18:47.482Z,91.00
2023-01-17T03:21:15.115Z,91.70
2023-01-17T03:23:42.411Z,91.90
2023-01-17T03:26:09.629Z,91.70
2023-01-17T03:28:37.396Z,91.00
2023-01-17T03:31:05.076Z,91.10
2023-01-17T03:33:33.499Z,91.40
2023-01-17T03:36:01.307Z,90.80
2023-01-17T03:38:30.631Z,91.50
2023-01-17T03:40:58.528Z,91.50
2023-01-17T03:43:26.179Z,91.00
2023-01-17T03:46:06.914Z,90.90
2023-01-17T03:48:34.391Z,92.10
2023-01-17T03:51:01.727Z,92.80
2023-01-17T03:53:30.182Z,92.40
2023-01-17T03:55:57.928Z,92.10
2023-01-17T03:58:26.753Z,92.00
2023-01-17T04:00:56.233Z,91.90
2023-01-17T04:03:23.771Z,91.40
2023-01-17T04:05:51.014Z,91.30
2023-01-17T04:08:20.455Z,91.20
2023-01-17T04:10:47.872Z,91.10
2023-01-17T04:13:16.913Z,92.00
2023-01-17T04:15:50.054Z,91.80
2023-01-17T04:18:19.711Z,92.90
2023-01-17T04:20:47.799Z,93.70
2023-01-17T04:23:15.306Z,93.60
2023-01-17T04:25:42.797Z,92.90
2023-01-17T04:28:11.536Z,93.00
2023-01-17T04:30:44.546Z,93.10
2023-01-17T04:33:12.421Z,93.00
2023-01-17T04:35:39.680Z,92.00
2023-01-17T04:38:08.335Z,91.70
2023-01-17T04:40:35.691Z,93.30
2023-01-17T04:43:03.171Z,94.20
2023-01-17T04:45:31.483Z,93.70
2023-01-17T04:48:06.289Z,92.70
2023-01-17T04:50:34.310Z,93.00
2023-01-17T04:53:02.485Z,93.40
2023-01-17T04:55:29.958Z,93.00
2023-01-17T04:57:58.139Z,93.00
2023-01-17T05:00:25.725Z,93.00
2023-01-17T05:02:53.377Z,93.00
2023-01-17T05:05:20.749Z,93.30
2023-01-17T05:07:57.934Z,93.40
2023-01-17T05:10:26.348Z,93.50
2023-01-17T05:12:59.184Z,93.10
2023-01-17T05:15:27.612Z,94.40
2023-01-17T05:17:56.343Z,95.00
2023-01-17T05:20:27.532Z,95.70
2023-01-17T05:22:57.745Z,95.90
2023-01-17T05:25:28.818Z,95.80
2023-01-17T05:27:56.760Z,95.80
2023-01-17T05:30:24.399Z,95.30
2023-01-17T05:32:53.681Z,95.90
2023-01-17T05:35:24.268Z,96.10
2023-01-17T05:37:53.345Z,96.20
2023-01-17T05:40:26.232Z,95.80
2023-01-17T05:42:56.373Z,96.10
2023-01-17T05:45:26.667Z,96.60
2023-01-17T05:47:56.345Z,96.30
2023-01-17T05:50:27.223Z,96.60
2023-01-17T05:53:00.752Z,96.50
2023-01-17T05:55:29.964Z,96.10
2023-01-17T05:57:57.817Z,95.60
2023-01-17T06:00:26.574Z,95.10
2023-01-17T06:02:56.058Z,95.30
2023-01-17T06:05:24.550Z,95.00
2023-01-17T06:07:53.168Z,94.70
2023-01-17T06:10:22.383Z,94.90
2023-01-17T06:12:50.391Z,94.80
2023-01-17T06:15:18.855Z,94.90
2023-01-17T06:17:46.747Z,94.90
2023-01-17T06:20:14.193Z,95.10
2023-01-17T06:22:41.454Z,95.50
2023-01-17T06:25:18.510Z,95.50
2023-01-17T06:27:46.543Z,95.60
2023-01-17T06:30:14.337Z,95.60
2023-01-17T06:32:42.690Z,95.70
2023-01-17T06:35:11.150Z,95.70
2023-01-17T06:37:43.672Z,95.40
2023-01-17T06:40:13.704Z,95.40
2023-01-17T06:42:41.100Z,95.60
2023-01-17T06:45:09.314Z,96.10
2023-01-17T06:47:40.587Z,96.20
2023-01-17T06:50:10.750Z,95.90
2023-01-17T06:52:38.540Z,96.00
2023-01-17T06:55:08.230Z,95.80
2023-01-17T06:57:35.980Z,96.00
2023-01-17T07:00:07.198Z,95.80
2023-01-17T07:02:35.467Z,95.90
2023-01-17T07:05:04.239Z,95.90
2023-01-17T07:07:35.941Z,95.70
2023-01-17T07:10:06.885Z,96.40
2023-01-17T07:12:34.741Z,96.30
2023-01-17T07:15:02.091Z,95.70
2023-01-17T07:17:30.406Z,95.80
2023-01-17T07:19:57.739Z,95.80
2023-01-17T07:22:25.901Z,95.80
2023-01-17T07:24:58.888Z,95.60
2023-01-17T07:27:30.780Z,95.40
2023-01-17T07:29:59.080Z,95.30
2023-01-17T07:32:26.837Z,95.50
2023-01-17T07:34:57.761Z,95.30
2023-01-17T07:37:26.618Z,95.00
2023-01-17T07:39:54.918Z,95.50
2023-01-17T07:42:24.361Z,95.80
2023-01-17T07:44:52.961Z,96.00
2023-01-17T07:47:20.338Z,95.80
2023-01-17T07:49:47.791Z,95.70
2023-01-17T07:52:17.413Z,96.20
2023-01-17T07:54:45.448Z,96.50
2023-01-17T07:57:13.103Z,96.40
2023-01-17T07:59:40.552Z,90.40
2023-01-17T08:02:17.965Z,90.00
2023-01-17T08:04:45.659Z,90.60
2023-01-17T08:07:14.617Z,91.00
2023-01-17T08:09:43.914Z,91.80
2023-01-17T08:12:12.245Z,92.50
2023-01-17T08:14:40.691Z,92.90
2023-01-17T08:17:15.194Z,93.30
2023-01-17T08:19:42.577Z,93.70
2023-01-17T08:22:10.064Z,94.10
2023-01-17T08:24:39.165Z,94.00
2023-01-17T08:27:06.551Z,94.50
2023-01-17T08:29:34.551Z,91.40
2023-01-17T08:32:01.898Z,84.50
2023-01-17T08:34:29.507Z,82.80
2023-01-17T08:36:56.922Z,81.50
2023-01-17T08:39:24.353Z,82.90
2023-01-17T08:41:53.256Z,83.00
2023-01-17T08:44:20.795Z,84.50
2023-01-17T08:46:48.179Z,85.70
2023-01-17T08:49:15.491Z,86.30
2023-01-17T08:51:42.877Z,87.30
2023-01-17T08:54:13.307Z,88.80
2023-01-17T08:56:42.917Z,90.30
2023-01-17T08:59:13.525Z,91.40
2023-01-17T09:01:42.586Z,92.10
2023-01-17T09:04:11.227Z,91.90
2023-01-17T09:06:41.138Z,91.00
2023-01-17T09:09:09.245Z,90.10
2023-01-17T09:11:38.441Z,90.30
2023-01-17T09:14:05.969Z,83.60
2023-01-17T09:16:35.310Z,81.20
2023-01-17T09:19:02.818Z,81.10
2023-01-17T09:21:30.716Z,81.80
2023-01-17T09:23:58.381Z,81.60
2023-01-17T09:26:28.617Z,82.80
2023-01-17T09:28:58.894Z,83.20
2023-01-17T09:31:28.093Z,82.00
2023-01-17T09:33:57.293Z,81.10
2023-01-17T09:36:34.654Z,83.30
2023-01-17T09:39:03.291Z,84.20
2023-01-17T09:42:09.541Z,82.40
2023-01-17T09:44:54.939Z,80.70
2023-01-17T09:47:44.782Z,81.60
2023-01-17T09:51:00.590Z,85.40
2023-01-17T09:53:32.778Z,86.30
2023-01-17T09:56:17.383Z,86.10
2023-01-17T09:58:50.313Z,85.80
2023-01-17T10:01:26.192Z,84.60
2023-01-17T10:04:04.484Z,84.20
2023-01-17T10:07:05.201Z,84.70
2023-01-17T10:09:38.616Z,85.60
2023-01-17T10:12:34.710Z,86.40
2023-01-17T10:15:28.862Z,83.20
2023-01-17T10:18:19.135Z,84.00
2023-01-17T10:21:05.831Z,86.00
2023-01-17T10:24:01.440Z,86.30
2023-01-17T10:26:29.352Z,88.50
2023-01-17T10:29:03.020Z,87.60
2023-01-17T10:31:39.888Z,89.20
2023-01-17T10:34:15.583Z,89.90
2023-01-17T10:36:48.819Z,89.00
2023-01-17T10:39:23.593Z,84.60
2023-01-17T10:42:22.253Z,84.90
2023-01-17T10:45:01.779Z,85.10
2023-01-17T10:47:33.864Z,83.70
2023-01-17T10:50:07.271Z,84.00
2023-01-17T10:52:46.572Z,83.10
2023-01-17T10:55:22.970Z,83.80
2023-01-17T10:57:51.548Z,85.70
2023-01-17T11:00:57.877Z,87.20
2023-01-17T11:03:28.896Z,89.30
2023-01-17T11:06:27.767Z,90.90
2023-01-17T11:08:58.169Z,92.70
2023-01-17T11:11:33.215Z,93.10
2023-01-17T11:14:06.587Z,92.90
2023-01-17T11:16:36.082Z,85.20
2023-01-17T11:19:15.486Z,83.20
2023-01-17T11:21:57.788Z,83.40
2023-01-17T11:24:34.006Z,84.10
2023-01-17T11:27:02.409Z,84.70
2023-01-17T11:29:36.908Z,83.70
2023-01-17T11:32:23.190Z,81.20
2023-01-17T11:35:26.536Z,82.20
2023-01-17T11:38:18.197Z,79.10
2023-01-17T11:40:47.437Z,78.80
2023-01-17T11:43:25.074Z,80.20
2023-01-17T11:46:21.692Z,81.40
2023-01-17T11:49:00.305Z,75.90
2023-01-17T11:51:31.968Z,77.30
2023-01-17T11:54:21.904Z,78.70
2023-01-17T11:56:52.247Z,83.70
2023-01-17T11:59:27.292Z,86.30
2023-01-17T12:02:32.439Z,85.70
2023-01-17T12:05:19.673Z,85.70
2023-01-17T12:07:57.549Z,82.70
2023-01-17T12:11:18.388Z,83.30
2023-01-17T12:14:12.892Z,79.40
2023-01-17T12:17:18.640Z,76.90
2023-01-17T12:20:10.422Z,77.40
2023-01-17T12:23:14.178Z,77.80
2023-01-17T12:26:14.448Z,83.20
2023-01-17T12:29:18.651Z,84.10
2023-01-17T12:31:57.190Z,84.20
2023-01-17T12:34:39.270Z,83.10
2023-01-17T12:37:21.377Z,82.30
2023-01-17T12:40:01.118Z,81.60
2023-01-17T12:42:37.691Z,83.20
2023-01-17T12:45:15.475Z,86.40
2023-01-17T12:47:48.781Z,85.90
2023-01-17T12:50:34.790Z,85.20
2023-01-17T12:53:12.968Z,83.00
2023-01-17T12:56:05.521Z,81.60
2023-01-17T12:58:47.530Z,82.70
2023-01-17T13:01:28.068Z,80.70
2023-01-17T13:04:05.478Z,82.50
2023-01-17T13:06:51.091Z,83.10
2023-01-17T13:09:23.489Z,82.40
2023-01-17T13:12:12.830Z,83.90
2023-01-17T13:14:41.721Z,86.80
2023-01-17T13:17:45.311Z,83.60
2023-01-17T13:20:18.590Z,82.60
2023-01-17T13:22:47.456Z,84.00
2023-01-17T13:25:46.711Z,86.30
2023-01-17T13:28:40.580Z,84.00
2023-01-17T13:31:46.862Z,81.80
2023-01-17T13:34:45.462Z,83.10
2023-01-17T13:37:44.996Z,85.50
2023-01-17T13:40:40.008Z,84.70
2023-01-17T13:43:20.624Z,86.90
2023-01-17T13:46:02.475Z,84.30
2023-01-17T13:48:41.289Z,85.60
2023-01-17T13:51:12.531Z,85.80
2023-01-17T13:53:56.081Z,86.80
2023-01-17T13:56:29.418Z,86.20
2023-01-17T13:59:02.855Z,87.40
2023-01-17T14:01:34.884Z,87.20
2023-01-17T14:04:06.895Z,83.10
2023-01-17T14:06:44.915Z,83.50
2023-01-17T14:09:34.273Z,86.20
2023-01-17T14:12:06.656Z,86.10
2023-01-17T14:14:40.463Z,87.10
2023-01-17T14:17:23.263Z,83.10
2023-01-17T14:20:07.774Z,87.00
2023-01-17T14:22:58.151Z,87.40
2023-01-17T14:25:30.346Z,87.20
2023-01-17T14:28:03.449Z,86.30
2023-01-17T14:30:39.900Z,84.60
2023-01-17T14:33:19.542Z,83.00
2023-01-17T14:36:01.407Z,84.60
2023-01-17T14:38:34.667Z,85.60
2023-01-17T14:41:21.261Z,84.30
2023-01-17T14:43:51.363Z,82.30
2023-01-17T14:46:28.701Z,83.70
2023-01-17T14:49:19.276Z,85.20
2023-01-17T14:52:01.621Z,84.60
2023-01-17T14:54:29.897Z,83.90
2023-01-17T14:57:27.486Z,87.20
2023-01-17T15:00:21.554Z,86.50
2023-01-17T15:02:52.780Z,82.20
2023-01-17T15:05:24.383Z,82.30
2023-01-17T15:07:55.047Z,82.70
2023-01-17T15:10:24.490Z,81.10
2023-01-17T15:12:52.923Z,81.50
2023-01-17T15:15:43.195Z,82.70
2023-01-17T15:18:15.524Z,78.60
2023-01-17T15:20:50.407Z,78.50
2023-01-17T15:23:24.350Z,82.10
2023-01-17T15:25:53.107Z,83.00
2023-01-17T15:28:20.665Z,82.40
2023-01-17T15:31:15.815Z,80.20
2023-01-17T15:33:47.167Z,82.00
2023-01-17T15:36:29.007Z,82.90
2023-01-17T15:39:00.399Z,81.50
2023-01-17T15:41:45.766Z,80.50
2023-01-17T15:44:47.665Z,82.50
2023-01-17T15:47:39.221Z,83.20
2023-01-17T15:50:26.738Z,83.40
2023-01-17T15:52:58.007Z,84.60
2023-01-17T15:55:36.170Z,83.20
2023-01-17T15:58:05.608Z,84.10
2023-01-17T16:00:43.640Z,82.70
2023-01-17T16:03:30.691Z,81.30
2023-01-17T16:06:01.641Z,81.20
2023-01-17T16:08:38.701Z,80.70
2023-01-17T16:11:07.471Z,81.90
2023-01-17T16:13:42.579Z,82.20
2023-01-17T16:16:15.095Z,81.80
2023-01-17T16:18:43.474Z,80.40
2023-01-17T16:21:23.206Z,79.90
2023-01-17T16:23:51.377Z,79.80
2023-01-17T16:26:19.100Z,80.80
2023-01-17T16:28:46.787Z,79.80
2023-01-17T16:31:18.921Z,77.60
2023-01-17T16:33:49.883Z,79.50
2023-01-17T16:36:17.700Z,77.20
2023-01-17T16:38:48.439Z,79.00
2023-01-17T16:41:17.927Z,80.00
2023-01-17T16:43:46.001Z,79.00
2023-01-17T16:46:15.405Z,79.70
2023-01-17T16:48:44.187Z,78.70
2023-01-17T16:51:15.248Z,78.80
2023-01-17T16:53:44.091Z,81.10
2023-01-17T16:56:15.512Z,78.20
2023-01-17T16:58:44.216Z,79.20
2023-01-17T17:01:18.376Z,78.80
2023-01-17T17:03:46.842Z,77.80
2023-01-17T17:06:15.352Z,78.70
2023-01-17T17:08:44.737Z,78.60
2023-01-17T17:11:22.194Z,79.00
2023-01-17T17:13:51.213Z,78.20
2023-01-17T17:16:30.809Z,78.80
2023-01-17T17:19:01.694Z,77.50
2023-01-17T17:21:33.077Z,74.60
2023-01-17T17:24:02.390Z,73.90
2023-01-17T17:26:34.586Z,75.60
2023-01-17T17:29:05.693Z,78.60
2023-01-17T17:31:34.224Z,78.00
2023-01-17T17:34:09.981Z,77.60
2023-01-17T17:36:37.806Z,76.20
2023-01-17T17:39:10.383Z,76.60
2023-01-17T17:41:44.996Z,76.00
2023-01-17T17:44:14.055Z,77.50
2023-01-17T17:46:52.804Z,79.30
2023-01-17T17:49:25.364Z,80.10
2023-01-17T17:51:56.554Z,80.70
2023-01-17T17:54:28.386Z,79.30
2023-01-17T17:56:55.956Z,80.00
2023-01-17T17:59:24.939Z,81.60
2023-01-17T18:01:52.578Z,82.40
2023-01-17T18:04:22.360Z,81.80
2023-01-17T18:06:50.556Z,81.00
2023-01-17T18:09:18.579Z,79.10
2023-01-17T18:11:46.004Z,79.70
2023-01-17T18:14:18.030Z,78.10
2023-01-17T18:16:48.414Z,78.30
2023-01-17T18:19:22.852Z,81.20
2023-01-17T18:21:52.454Z,79.20
2023-01-17T18:24:24.435Z,79.70
2023-01-17T18:26:54.472Z,81.00
2023-01-17T18:29:23.269Z,78.30
2023-01-17T18:31:53.143Z,80.40
2023-01-17T18:34:24.635Z,80.90
2023-01-17T18:36:52.994Z,79.70
2023-01-17T18:39:27.118Z,80.90
2023-01-17T18:41:57.638Z,82.40
2023-01-17T18:44:27.568Z,79.60
2023-01-17T18:47:04.687Z,77.50
2023-01-17T18:49:34.257Z,78.70
2023-01-17T18:52:02.689Z,78.80
2023-01-17T18:54:30.409Z,77.50
2023-01-17T18:56:58.149Z,78.80
2023-01-17T18:59:26.435Z,76.50
2023-01-17T19:01:54.421Z,76.50
2023-01-17T19:04:24.228Z,75.40
2023-01-17T19:06:54.261Z,70.00
2023-01-17T19:09:24.035Z,70.10
2023-01-17T19:11:51.791Z,71.20
2023-01-17T19:14:19.337Z,71.00
2023-01-17T19:16:50.352Z,73.90
2023-01-17T19:19:18.150Z,73.20
2023-01-17T19:21:48.511Z,75.70
2023-01-17T19:24:22.196Z,77.10
2023-01-17T19:26:52.959Z,78.30
2023-01-17T19:29:25.586Z,77.20
2023-01-17T19:31:55.292Z,73.70
2023-01-17T19:34:23.449Z,75.30
2023-01-17T19:36:53.334Z,76.90
2023-01-17T19:39:23.616Z,78.80
2023-01-17T19:41:51.280Z,80.30
2023-01-17T19:44:18.601Z,81.30
2023-01-17T19:46:46.275Z,81.30
2023-01-17T19:49:13.927Z,81.90
2023-01-17T19:51:41.819Z,81.70
2023-01-17T19:54:09.517Z,82.50
2023-01-17T19:56:37.587Z,83.10
2023-01-17T19:59:08.819Z,82.10
2023-01-17T20:01:37.224Z,82.70
2023-01-17T20:04:09.037Z,82.30
2023-01-17T20:06:51.298Z,83.20
2023-01-17T20:09:20.074Z,83.00
2023-01-17T20:11:50.979Z,83.30
2023-01-17T20:14:23.000Z,83.60
2023-01-17T20:16:53.952Z,84.20
2023-01-17T20:19:22.877Z,84.50
2023-01-17T20:21:50.233Z,85.10
2023-01-17T20:24:18.825Z,85.10
2023-01-17T20:26:46.239Z,84.90
2023-01-17T20:29:16.936Z,85.00
2023-01-17T20:31:46.318Z,85.30
2023-01-17T20:34:18.834Z,84.60
2023-01-17T20:36:47.111Z,83.00
2023-01-17T20:39:15.802Z,82.80
2023-01-17T20:41:46.437Z,82.70
2023-01-17T20:44:15.490Z,81.90
2023-01-17T20:46:44.152Z,81.80
2023-01-17T20:49:19.709Z,81.60
2023-01-17T20:51:50.842Z,81.50
2023-01-17T20:54:20.301Z,81.90
2023-01-17T20:56:48.345Z,82.40
2023-01-17T20:59:25.875Z,82.70
2023-01-17T21:02:00.741Z,83.80
2023-01-17T21:04:32.097Z,83.90
2023-01-17T21:07:05.814Z,83.60
2023-01-17T21:09:43.050Z,83.20
2023-01-17T21:12:12.731Z,81.30
2023-01-17T21:14:42.777Z,80.20
2023-01-17T21:17:11.012Z,80.10
2023-01-17T21:19:50.935Z,80.20
2023-01-17T21:22:18.344Z,80.30
2023-01-17T21:24:46.212Z,78.40
2023-01-17T21:27:13.516Z,80.50
2023-01-17T21:29:44.840Z,82.60
2023-01-17T21:32:12.366Z,84.10
2023-01-17T21:34:40.424Z,84.90
2023-01-17T21:37:08.349Z,83.90
2023-01-17T21:39:36.804Z,83.40
2023-01-17T21:42:04.981Z,82.50
2023-01-17T21:44:36.435Z,81.50
2023-01-17T21:47:04.798Z,81.00
2023-01-17T21:49:32.655Z,81.20
2023-01-17T21:52:01.593Z,81.60
2023-01-17T21:54:49.088Z,81.60
2023-01-17T21:57:37.919Z,82.20
2023-01-17T22:00:14.638Z,83.00
2023-01-17T22:02:48.861Z,82.30
2023-01-17T22:05:17.054Z,81.20
2023-01-17T22:08:05.768Z,81.00
2023-01-17T22:10:45.077Z,80.70
2023-01-17T22:13:18.387Z,80.80
2023-01-17T22:15:49.527Z,80.90
2023-01-17T22:18:18.119Z,81.20
2023-01-17T22:20:46.769Z,81.30
2023-01-17T22:23:14.113Z,81.70
2023-01-17T22:25:41.686Z,81.10
2023-01-17T22:28:09.559Z,81.10
2023-01-17T22:30:41.450Z,81.40
2023-01-17T22:33:10.801Z,81.40
2023-01-17T22:35:38.207Z,80.70
2023-01-17T22:38:06.219Z,80.90
2023-01-17T22:40:36.357Z,81.70
2023-01-17T22:43:04.285Z,82.00
2023-01-17T22:45:36.031Z,81.60
2023-01-17T22:48:05.509Z,81.70
2023-01-17T22:50:32.850Z,81.90
2023-01-17T22:53:00.208Z,81.30
2023-01-17T22:55:27.753Z,79.60
2023-01-17T22:57:55.644Z,79.50
2023-01-17T23:00:24.710Z,81.60
2023-01-17T23:02:53.597Z,82.10
2023-01-17T23:05:22.422Z,83.00
2023-01-17T23:07:51.537Z,85.10
2023-01-17T23:10:38.832Z,86.10
2023-01-17T23:13:09.973Z,87.20
2023-01-17T23:15:57.891Z,85.80
2023-01-17T23:18:44.313Z,84.00
2023-01-17T23:21:11.634Z,83.00
2023-01-17T23:23:39.942Z,80.60
2023-01-17T23:26:07.291Z,80.00
2023-01-17T23:28:34.569Z,80.00
2023-01-17T23:31:05.071Z,79.20
2023-01-17T23:33:33.279Z,76.00
2023-01-17T23:36:00.672Z,77.00
2023-01-17T23:38:30.726Z,77.10
2023-01-17T23:41:25.639Z,76.70
2023-01-17T23:43:59.146Z,76.60
2023-01-17T23:46:27.358Z,73.80
2023-01-17T23:48:55.434Z,71.80
2023-01-17T23:51:23.996Z,74.80
2023-01-17T23:53:57.538Z,75.90
2023-01-17T23:56:25.589Z,74.80
2023-01-17T23:58:53.742Z,75.00
